sensor_id;sensor_type;location;lat;lon;timestamp;pressure;altitude;pressure_sealevel;temperature;humidity
54306;BME280;66145;45.188;5.712;2023-06-19T00:01:45;99017.19;;;22.06;63.75
54306;BME280;66145;45.188;5.712;2023-06-19T00:04:11;99044.53;;;22.24;63.68
54306;BME280;66145;45.188;5.712;2023-06-19T00:06:36;99027.41;;;22.18;63.64
54306;BME280;66145;45.188;5.712;2023-06-19T00:09:02;99043.25;;;22.21;63.59
54306;BME280;66145;45.188;5.712;2023-06-19T00:11:28;99043.47;;;22.16;63.78
54306;BME280;66145;45.188;5.712;2023-06-19T00:13:54;99064.94;;;22.23;63.66
54306;BME280;66145;45.188;5.712;2023-06-19T00:16:19;99065.19;;;22.30;63.47
54306;BME280;66145;45.188;5.712;2023-06-19T00:18:46;99045.44;;;22.15;63.93
54306;BME280;66145;45.188;5.712;2023-06-19T00:21:11;99050.28;;;22.18;63.84
54306;BME280;66145;45.188;5.712;2023-06-19T00:23:36;99056.94;;;22.30;63.74
54306;BME280;66145;45.188;5.712;2023-06-19T00:26:02;99065.56;;;22.28;63.83
54306;BME280;66145;45.188;5.712;2023-06-19T00:28:29;99076.47;;;22.37;63.90
54306;BME280;66145;45.188;5.712;2023-06-19T00:30:54;99065.44;;;22.37;64.00
54306;BME280;66145;45.188;5.712;2023-06-19T00:33:20;99067.38;;;22.37;63.86
54306;BME280;66145;45.188;5.712;2023-06-19T00:35:45;99079.84;;;22.43;63.87
54306;BME280;66145;45.188;5.712;2023-06-19T00:38:10;99096.66;;;22.41;63.53
54306;BME280;66145;45.188;5.712;2023-06-19T00:40:37;99078.97;;;22.30;63.85
54306;BME280;66145;45.188;5.712;2023-06-19T00:43:03;99098.75;;;22.44;63.75
54306;BME280;66145;45.188;5.712;2023-06-19T00:45:29;99100.44;;;22.37;64.01
54306;BME280;66145;45.188;5.712;2023-06-19T00:47:55;99104.63;;;22.43;63.63
54306;BME280;66145;45.188;5.712;2023-06-19T00:50:22;99105.09;;;22.45;63.76
54306;BME280;66145;45.188;5.712;2023-06-19T00:52:48;99109.78;;;22.44;63.95
54306;BME280;66145;45.188;5.712;2023-06-19T00:55:15;99087.03;;;22.35;64.00
54306;BME280;66145;45.188;5.712;2023-06-19T00:57:41;99097.50;;;22.42;63.77
54306;BME280;66145;45.188;5.712;2023-06-19T01:00:07;99075.06;;;22.31;64.15
54306;BME280;66145;45.188;5.712;2023-06-19T01:02:33;99073.25;;;22.35;64.13
54306;BME280;66145;45.188;5.712;2023-06-19T01:04:58;99088.75;;;22.40;63.69
54306;BME280;66145;45.188;5.712;2023-06-19T01:10:39;99077.06;;;22.43;64.16
54306;BME280;66145;45.188;5.712;2023-06-19T01:13:15;99079.66;;;22.39;64.08
54306;BME280;66145;45.188;5.712;2023-06-19T01:15:42;99079.34;;;22.41;64.20
54306;BME280;66145;45.188;5.712;2023-06-19T01:18:08;99092.22;;;22.49;64.34
54306;BME280;66145;45.188;5.712;2023-06-19T01:20:37;99073.81;;;22.41;64.26
54306;BME280;66145;45.188;5.712;2023-06-19T01:23:10;99061.41;;;22.34;64.53
54306;BME280;66145;45.188;5.712;2023-06-19T01:25:36;99082.34;;;22.48;64.54
54306;BME280;66145;45.188;5.712;2023-06-19T01:28:07;99071.50;;;22.30;64.59
54306;BME280;66145;45.188;5.712;2023-06-19T01:30:35;99074.97;;;22.40;64.49
54306;BME280;66145;45.188;5.712;2023-06-19T01:33:10;99092.47;;;22.44;64.41
54306;BME280;66145;45.188;5.712;2023-06-19T01:35:39;99079.00;;;22.42;64.52
54306;BME280;66145;45.188;5.712;2023-06-19T01:38:06;99053.38;;;22.29;64.43
54306;BME280;66145;45.188;5.712;2023-06-19T01:40:33;99072.81;;;22.45;64.40
54306;BME280;66145;45.188;5.712;2023-06-19T01:42:59;99086.94;;;22.44;64.74
54306;BME280;66145;45.188;5.712;2023-06-19T01:45:30;99087.06;;;22.47;64.50
54306;BME280;66145;45.188;5.712;2023-06-19T01:47:56;99063.03;;;22.36;64.52
54306;BME280;66145;45.188;5.712;2023-06-19T01:50:22;99073.97;;;22.44;64.66
54306;BME280;66145;45.188;5.712;2023-06-19T01:52:48;99071.56;;;22.43;64.46
54306;BME280;66145;45.188;5.712;2023-06-19T01:55:14;99059.59;;;22.39;64.64
54306;BME280;66145;45.188;5.712;2023-06-19T01:57:39;99070.41;;;22.44;64.61
54306;BME280;66145;45.188;5.712;2023-06-19T02:00:05;99056.38;;;22.37;64.59
54306;BME280;66145;45.188;5.712;2023-06-19T02:02:36;99061.69;;;22.42;64.54
54306;BME280;66145;45.188;5.712;2023-06-19T02:05:01;99075.69;;;22.49;64.56
54306;BME280;66145;45.188;5.712;2023-06-19T02:07:27;99060.19;;;22.44;64.58
54306;BME280;66145;45.188;5.712;2023-06-19T02:09:52;99070.06;;;22.45;64.82
54306;BME280;66145;45.188;5.712;2023-06-19T02:12:18;99049.72;;;22.38;64.70
54306;BME280;66145;45.188;5.712;2023-06-19T02:14:43;99080.41;;;22.48;64.66
54306;BME280;66145;45.188;5.712;2023-06-19T02:17:09;99048.91;;;22.37;64.31
54306;BME280;66145;45.188;5.712;2023-06-19T02:19:34;99047.56;;;22.43;64.64
54306;BME280;66145;45.188;5.712;2023-06-19T02:21:59;99055.03;;;22.43;64.37
54306;BME280;66145;45.188;5.712;2023-06-19T02:24:25;99059.41;;;22.44;64.68
54306;BME280;66145;45.188;5.712;2023-06-19T02:26:50;99043.84;;;22.39;64.51
54306;BME280;66145;45.188;5.712;2023-06-19T02:29:16;99039.94;;;22.40;64.66
54306;BME280;66145;45.188;5.712;2023-06-19T02:31:41;99057.78;;;22.43;64.58
54306;BME280;66145;45.188;5.712;2023-06-19T02:34:08;99058.81;;;22.51;64.70
54306;BME280;66145;45.188;5.712;2023-06-19T02:36:34;99074.06;;;22.48;64.77
54306;BME280;66145;45.188;5.712;2023-06-19T02:39:01;99055.13;;;22.46;64.71
54306;BME280;66145;45.188;5.712;2023-06-19T02:41:26;99035.56;;;22.39;64.34
54306;BME280;66145;45.188;5.712;2023-06-19T02:43:51;99059.03;;;22.45;64.45
54306;BME280;66145;45.188;5.712;2023-06-19T02:46:16;99055.25;;;22.50;64.88
54306;BME280;66145;45.188;5.712;2023-06-19T02:48:42;99040.44;;;22.42;64.52
54306;BME280;66145;45.188;5.712;2023-06-19T02:51:08;99050.88;;;22.49;64.36
54306;BME280;66145;45.188;5.712;2023-06-19T02:53:33;99043.31;;;22.46;64.64
54306;BME280;66145;45.188;5.712;2023-06-19T02:55:58;99029.28;;;22.39;64.32
54306;BME280;66145;45.188;5.712;2023-06-19T02:58:23;99023.75;;;22.39;64.88
54306;BME280;66145;45.188;5.712;2023-06-19T03:00:52;99028.63;;;22.42;64.34
54306;BME280;66145;45.188;5.712;2023-06-19T03:03:17;99021.97;;;22.43;64.31
54306;BME280;66145;45.188;5.712;2023-06-19T03:05:43;99023.09;;;22.42;65.23
54306;BME280;66145;45.188;5.712;2023-06-19T03:08:08;99034.69;;;22.47;64.72
54306;BME280;66145;45.188;5.712;2023-06-19T03:10:33;99041.13;;;22.52;64.87
54306;BME280;66145;45.188;5.712;2023-06-19T03:12:59;99022.84;;;22.34;64.86
54306;BME280;66145;45.188;5.712;2023-06-19T03:15:25;99051.00;;;22.53;64.93
54306;BME280;66145;45.188;5.712;2023-06-19T03:17:50;99039.75;;;22.45;65.37
54306;BME280;66145;45.188;5.712;2023-06-19T03:20:15;99043.91;;;22.52;64.59
54306;BME280;66145;45.188;5.712;2023-06-19T03:22:41;99028.72;;;22.45;65.10
54306;BME280;66145;45.188;5.712;2023-06-19T03:25:07;99053.88;;;22.56;64.75
54306;BME280;66145;45.188;5.712;2023-06-19T03:27:33;99020.91;;;22.35;65.10
54306;BME280;66145;45.188;5.712;2023-06-19T03:29:59;99055.81;;;22.56;65.13
54306;BME280;66145;45.188;5.712;2023-06-19T03:32:24;99032.63;;;22.44;65.03
54306;BME280;66145;45.188;5.712;2023-06-19T03:34:49;99025.88;;;22.42;65.23
54306;BME280;66145;45.188;5.712;2023-06-19T03:37:15;99037.66;;;22.55;65.09
54306;BME280;66145;45.188;5.712;2023-06-19T03:39:40;99046.97;;;22.50;65.29
54306;BME280;66145;45.188;5.712;2023-06-19T03:42:06;99053.41;;;22.54;65.15
54306;BME280;66145;45.188;5.712;2023-06-19T03:44:31;99053.63;;;22.49;64.92
54306;BME280;66145;45.188;5.712;2023-06-19T03:46:57;99060.06;;;22.53;65.08
54306;BME280;66145;45.188;5.712;2023-06-19T03:49:22;99037.34;;;22.44;64.81
54306;BME280;66145;45.188;5.712;2023-06-19T03:51:47;99061.22;;;22.52;64.65
54306;BME280;66145;45.188;5.712;2023-06-19T03:54:12;99050.41;;;22.47;65.09
54306;BME280;66145;45.188;5.712;2023-06-19T03:56:38;99052.84;;;22.48;64.54
54306;BME280;66145;45.188;5.712;2023-06-19T03:59:03;99059.72;;;22.55;64.99
54306;BME280;66145;45.188;5.712;2023-06-19T04:01:28;99050.16;;;22.40;64.46
54306;BME280;66145;45.188;5.712;2023-06-19T04:03:54;99060.06;;;22.53;64.73
54306;BME280;66145;45.188;5.712;2023-06-19T04:06:19;99051.59;;;22.46;64.86
54306;BME280;66145;45.188;5.712;2023-06-19T04:08:44;99071.09;;;22.53;64.78
54306;BME280;66145;45.188;5.712;2023-06-19T04:11:10;99072.25;;;22.52;64.54
54306;BME280;66145;45.188;5.712;2023-06-19T04:13:35;99081.75;;;22.55;64.74
54306;BME280;66145;45.188;5.712;2023-06-19T04:16:00;99059.22;;;22.40;65.01
54306;BME280;66145;45.188;5.712;2023-06-19T04:18:26;99065.69;;;22.44;65.02
54306;BME280;66145;45.188;5.712;2023-06-19T04:20:52;99066.28;;;22.50;64.98
54306;BME280;66145;45.188;5.712;2023-06-19T04:23:18;99074.69;;;22.54;64.43
54306;BME280;66145;45.188;5.712;2023-06-19T04:25:43;99068.13;;;22.46;64.80
54306;BME280;66145;45.188;5.712;2023-06-19T04:28:08;99061.31;;;22.43;64.99
54306;BME280;66145;45.188;5.712;2023-06-19T04:30:34;99061.69;;;22.42;64.48
54306;BME280;66145;45.188;5.712;2023-06-19T04:32:59;99049.25;;;22.36;64.88
54306;BME280;66145;45.188;5.712;2023-06-19T04:35:24;99068.56;;;22.48;64.84
54306;BME280;66145;45.188;5.712;2023-06-19T04:37:50;99080.63;;;22.56;64.62
54306;BME280;66145;45.188;5.712;2023-06-19T04:40:15;99073.75;;;22.50;64.34
54306;BME280;66145;45.188;5.712;2023-06-19T04:42:41;99065.22;;;22.42;64.75
54306;BME280;66145;45.188;5.712;2023-06-19T04:45:07;99078.56;;;22.53;64.99
54306;BME280;66145;45.188;5.712;2023-06-19T04:47:33;99057.44;;;22.44;64.93
54306;BME280;66145;45.188;5.712;2023-06-19T04:49:59;99092.78;;;22.55;64.76
54306;BME280;66145;45.188;5.712;2023-06-19T04:52:25;99058.44;;;22.40;64.95
54306;BME280;66145;45.188;5.712;2023-06-19T04:54:50;99076.97;;;22.52;64.84
54306;BME280;66145;45.188;5.712;2023-06-19T04:57:16;99077.75;;;22.52;64.95
54306;BME280;66145;45.188;5.712;2023-06-19T04:59:43;99070.88;;;22.46;64.80
54306;BME280;66145;45.188;5.712;2023-06-19T05:02:12;99079.72;;;22.52;64.61
54306;BME280;66145;45.188;5.712;2023-06-19T05:04:37;99078.56;;;22.53;64.93
54306;BME280;66145;45.188;5.712;2023-06-19T05:07:03;99082.94;;;22.54;65.02
54306;BME280;66145;45.188;5.712;2023-06-19T05:09:29;99080.50;;;22.52;64.61
54306;BME280;66145;45.188;5.712;2023-06-19T05:11:54;99074.06;;;22.48;64.78
54306;BME280;66145;45.188;5.712;2023-06-19T05:14:19;99059.34;;;22.31;64.98
54306;BME280;66145;45.188;5.712;2023-06-19T05:16:45;99079.94;;;22.46;64.93
54306;BME280;66145;45.188;5.712;2023-06-19T05:19:10;99086.69;;;22.49;64.71
54306;BME280;66145;45.188;5.712;2023-06-19T05:21:36;99061.31;;;22.43;64.75
54306;BME280;66145;45.188;5.712;2023-06-19T05:24:01;99070.63;;;22.51;64.88
54306;BME280;66145;45.188;5.712;2023-06-19T05:26:26;99062.69;;;22.37;64.82
54306;BME280;66145;45.188;5.712;2023-06-19T05:28:52;99075.22;;;22.47;64.95
54306;BME280;66145;45.188;5.712;2023-06-19T05:31:17;99074.06;;;22.48;65.06
54306;BME280;66145;45.188;5.712;2023-06-19T05:33:46;99084.31;;;22.47;64.55
54306;BME280;66145;45.188;5.712;2023-06-19T05:36:11;99097.16;;;22.56;64.56
54306;BME280;66145;45.188;5.712;2023-06-19T05:38:36;99071.66;;;22.46;64.73
54306;BME280;66145;45.188;5.712;2023-06-19T05:41:02;99076.16;;;22.51;64.70
54306;BME280;66145;45.188;5.712;2023-06-19T05:43:28;99094.88;;;22.58;64.57
54306;BME280;66145;45.188;5.712;2023-06-19T05:45:54;99082.81;;;22.50;64.66
54306;BME280;66145;45.188;5.712;2023-06-19T05:48:24;99089.03;;;22.59;64.83
54306;BME280;66145;45.188;5.712;2023-06-19T05:50:50;99075.81;;;22.53;64.62
54306;BME280;66145;45.188;5.712;2023-06-19T05:53:15;99078.69;;;22.56;64.78
54306;BME280;66145;45.188;5.712;2023-06-19T05:55:40;99069.03;;;22.50;64.69
54306;BME280;66145;45.188;5.712;2023-06-19T05:58:06;99088.88;;;22.56;64.51
54306;BME280;66145;45.188;5.712;2023-06-19T06:00:31;99090.63;;;22.60;64.72
54306;BME280;66145;45.188;5.712;2023-06-19T06:02:57;99078.69;;;22.56;64.58
54306;BME280;66145;45.188;5.712;2023-06-19T06:05:26;99072.25;;;22.52;64.76
54306;BME280;66145;45.188;5.712;2023-06-19T06:07:53;99084.53;;;22.55;64.60
54306;BME280;66145;45.188;5.712;2023-06-19T06:10:23;99081.66;;;22.63;64.70
54306;BME280;66145;45.188;5.712;2023-06-19T06:12:49;99091.44;;;22.61;64.69
54306;BME280;66145;45.188;5.712;2023-06-19T06:15:15;99072.94;;;22.49;64.98
54306;BME280;66145;45.188;5.712;2023-06-19T06:17:41;99086.13;;;22.56;64.36
54306;BME280;66145;45.188;5.712;2023-06-19T06:20:07;99080.41;;;22.48;64.70
54306;BME280;66145;45.188;5.712;2023-06-19T06:22:40;99095.78;;;22.62;64.59
54306;BME280;66145;45.188;5.712;2023-06-19T06:25:06;99091.22;;;22.54;64.60
54306;BME280;66145;45.188;5.712;2023-06-19T06:27:33;99064.53;;;22.33;65.00
54306;BME280;66145;45.188;5.712;2023-06-19T06:29:58;99099.59;;;22.57;64.79
54306;BME280;66145;45.188;5.712;2023-06-19T06:32:23;99094.53;;;22.59;64.88
54306;BME280;66145;45.188;5.712;2023-06-19T06:34:49;99094.88;;;22.58;64.91
54306;BME280;66145;45.188;5.712;2023-06-19T06:37:14;99091.31;;;22.57;64.85
54306;BME280;66145;45.188;5.712;2023-06-19T06:39:41;99097.03;;;22.52;64.73
54306;BME280;66145;45.188;5.712;2023-06-19T06:42:06;99088.78;;;22.52;64.71
54306;BME280;66145;45.188;5.712;2023-06-19T06:44:32;99100.06;;;22.59;64.55
54306;BME280;66145;45.188;5.712;2023-06-19T06:46:57;99108.66;;;22.58;64.64
54306;BME280;66145;45.188;5.712;2023-06-19T06:49:23;99112.31;;;22.62;64.60
54306;BME280;66145;45.188;5.712;2023-06-19T06:51:48;99104.38;;;22.48;64.69
54306;BME280;66145;45.188;5.712;2023-06-19T06:54:14;99120.50;;;22.58;64.75
54306;BME280;66145;45.188;5.712;2023-06-19T06:56:39;99109.22;;;22.51;64.54
54306;BME280;66145;45.188;5.712;2023-06-19T06:59:04;99122.56;;;22.61;64.59
54306;BME280;66145;45.188;5.712;2023-06-19T07:01:30;99121.28;;;22.59;64.85
54306;BME280;66145;45.188;5.712;2023-06-19T07:03:55;99121.63;;;22.57;64.64
54306;BME280;66145;45.188;5.712;2023-06-19T07:06:20;99122.31;;;22.54;64.59
54306;BME280;66145;45.188;5.712;2023-06-19T07:08:46;99122.22;;;22.51;64.45
54306;BME280;66145;45.188;5.712;2023-06-19T07:11:13;99115.19;;;22.53;64.64
54306;BME280;66145;45.188;5.712;2023-06-19T07:13:38;99110.81;;;22.52;64.58
54306;BME280;66145;45.188;5.712;2023-06-19T07:16:05;99133.59;;;22.61;64.72
54306;BME280;66145;45.188;5.712;2023-06-19T07:18:30;99116.22;;;22.48;64.56
54306;BME280;66145;45.188;5.712;2023-06-19T07:20:55;99120.81;;;22.57;64.74
54306;BME280;66145;45.188;5.712;2023-06-19T07:23:21;99118.78;;;22.54;64.60
54306;BME280;66145;45.188;5.712;2023-06-19T07:25:46;99121.28;;;22.59;64.40
54306;BME280;66145;45.188;5.712;2023-06-19T07:28:12;99109.69;;;22.53;64.51
54306;BME280;66145;45.188;5.712;2023-06-19T07:30:39;99104.38;;;22.48;64.64
54306;BME280;66145;45.188;5.712;2023-06-19T07:33:04;99114.63;;;22.60;64.42
54306;BME280;66145;45.188;5.712;2023-06-19T07:35:29;99111.41;;;22.58;64.56
54306;BME280;66145;45.188;5.712;2023-06-19T07:37:55;99115.34;;;22.69;64.57
54306;BME280;66145;45.188;5.712;2023-06-19T07:40:20;99102.44;;;22.61;64.28
54306;BME280;66145;45.188;5.712;2023-06-19T07:42:45;99123.25;;;22.71;64.21
54306;BME280;66145;45.188;5.712;2023-06-19T07:45:12;99106.34;;;22.60;64.33
54306;BME280;66145;45.188;5.712;2023-06-19T07:47:37;99113.25;;;22.66;64.41
54306;BME280;66145;45.188;5.712;2023-06-19T07:50:03;99089.25;;;22.42;64.57
54306;BME280;66145;45.188;5.712;2023-06-19T07:52:28;99114.25;;;22.49;64.74
54306;BME280;66145;45.188;5.712;2023-06-19T07:54:55;99110.44;;;22.41;65.07
54306;BME280;66145;45.188;5.712;2023-06-19T07:57:21;99095.50;;;22.30;64.99
54306;BME280;66145;45.188;5.712;2023-06-19T07:59:48;99118.81;;;22.32;64.93
54306;BME280;66145;45.188;5.712;2023-06-19T08:02:13;99126.19;;;22.41;65.28
54306;BME280;66145;45.188;5.712;2023-06-19T08:04:38;99110.44;;;22.29;65.25
54306;BME280;66145;45.188;5.712;2023-06-19T08:07:04;99113.53;;;22.27;65.11
54306;BME280;66145;45.188;5.712;2023-06-19T08:09:29;99105.94;;;22.24;65.01
54306;BME280;66145;45.188;5.712;2023-06-19T08:11:55;99114.13;;;22.33;65.31
54306;BME280;66145;45.188;5.712;2023-06-19T08:14:20;99084.22;;;22.10;64.91
54306;BME280;66145;45.188;5.712;2023-06-19T08:16:45;99110.19;;;22.22;65.07
54306;BME280;66145;45.188;5.712;2023-06-19T08:19:11;99127.06;;;22.32;65.15
54306;BME280;66145;45.188;5.712;2023-06-19T08:21:36;99101.47;;;22.20;64.84
54306;BME280;66145;45.188;5.712;2023-06-19T08:24:01;99093.19;;;22.20;65.23
54306;BME280;66145;45.188;5.712;2023-06-19T08:26:27;99108.81;;;22.28;64.72
54306;BME280;66145;45.188;5.712;2023-06-19T08:28:53;99081.13;;;22.12;65.18
54306;BME280;66145;45.188;5.712;2023-06-19T08:31:19;99091.13;;;22.16;65.23
54306;BME280;66145;45.188;5.712;2023-06-19T08:33:46;99095.97;;;22.20;65.54
54306;BME280;66145;45.188;5.712;2023-06-19T08:36:13;99099.97;;;22.34;65.27
54306;BME280;66145;45.188;5.712;2023-06-19T08:38:39;99100.34;;;22.33;65.18
54306;BME280;66145;45.188;5.712;2023-06-19T08:41:04;99091.81;;;22.26;65.18
54306;BME280;66145;45.188;5.712;2023-06-19T08:43:29;99105.72;;;22.29;65.42
54306;BME280;66145;45.188;5.712;2023-06-19T08:46:13;99100.66;;;22.19;65.58
54306;BME280;66145;45.188;5.712;2023-06-19T08:48:39;99104.91;;;22.29;65.68
54306;BME280;66145;45.188;5.712;2023-06-19T08:51:05;99091.81;;;22.26;65.56
54306;BME280;66145;45.188;5.712;2023-06-19T08:53:44;99072.41;;;22.22;65.50
54306;BME280;66145;45.188;5.712;2023-06-19T08:56:09;99088.50;;;22.32;65.41
54306;BME280;66145;45.188;5.712;2023-06-19T08:58:35;99096.19;;;22.39;65.08
54306;BME280;66145;45.188;5.712;2023-06-19T09:01:00;99067.69;;;22.23;64.86
54306;BME280;66145;45.188;5.712;2023-06-19T09:03:26;99098.63;;;22.41;65.64
54306;BME280;66145;45.188;5.712;2023-06-19T09:05:51;99074.81;;;22.24;65.56
54306;BME280;66145;45.188;5.712;2023-06-19T09:08:17;99077.38;;;22.29;65.07
54306;BME280;66145;45.188;5.712;2023-06-19T09:10:54;99080.94;;;22.29;65.29
54306;BME280;66145;45.188;5.712;2023-06-19T09:13:19;99093.31;;;22.36;65.73
54306;BME280;66145;45.188;5.712;2023-06-19T09:15:45;99074.97;;;22.27;65.24
54306;BME280;66145;45.188;5.712;2023-06-19T09:18:11;99079.56;;;22.36;65.62
54306;BME280;66145;45.188;5.712;2023-06-19T09:20:41;99073.09;;;22.31;65.87
54306;BME280;66145;45.188;5.712;2023-06-19T09:23:10;99077.47;;;22.32;64.98
54306;BME280;66145;45.188;5.712;2023-06-19T09:25:45;99089.53;;;22.40;65.26
54306;BME280;66145;45.188;5.712;2023-06-19T09:28:22;99085.16;;;22.39;65.14
54306;BME280;66145;45.188;5.712;2023-06-19T09:30:59;99067.38;;;22.37;65.54
54306;BME280;66145;45.188;5.712;2023-06-19T09:33:28;99054.97;;;22.18;65.56
54306;BME280;66145;45.188;5.712;2023-06-19T09:35:58;99084.53;;;22.42;65.84
54306;BME280;66145;45.188;5.712;2023-06-19T09:38:26;99086.13;;;22.56;65.55
54306;BME280;66145;45.188;5.712;2023-06-19T09:40:52;99067.44;;;22.61;65.52
54306;BME280;66145;45.188;5.712;2023-06-19T09:43:20;99067.44;;;22.61;65.27
54306;BME280;66145;45.188;5.712;2023-06-19T09:45:48;99056.84;;;22.63;65.40
54306;BME280;66145;45.188;5.712;2023-06-19T09:48:18;99058.78;;;22.75;65.03
54306;BME280;66145;45.188;5.712;2023-06-19T09:50:47;99025.50;;;22.56;65.02
54306;BME280;66145;45.188;5.712;2023-06-19T09:53:14;99038.94;;;22.70;65.10
54306;BME280;66145;45.188;5.712;2023-06-19T09:55:40;99040.91;;;22.69;65.08
54306;BME280;66145;45.188;5.712;2023-06-19T09:58:06;99046.72;;;22.80;64.83
54306;BME280;66145;45.188;5.712;2023-06-19T10:00:31;99037.66;;;22.79;64.74
54306;BME280;66145;45.188;5.712;2023-06-19T10:02:57;99042.47;;;22.83;64.93
54306;BME280;66145;45.188;5.712;2023-06-19T10:05:31;99046.94;;;22.87;64.85
54306;BME280;66145;45.188;5.712;2023-06-19T10:07:57;99040.63;;;22.87;64.98
54306;BME280;66145;45.188;5.712;2023-06-19T10:10:26;99023.97;;;22.83;64.67
54306;BME280;66145;45.188;5.712;2023-06-19T10:12:55;99034.66;;;22.97;64.65
54306;BME280;66145;45.188;5.712;2023-06-19T10:15:28;99029.22;;;23.01;64.54
54306;BME280;66145;45.188;5.712;2023-06-19T10:18:05;99032.44;;;23.03;64.38
54306;BME280;66145;45.188;5.712;2023-06-19T10:20:32;99018.31;;;22.92;64.53
54306;BME280;66145;45.188;5.712;2023-06-19T10:25:39;99031.50;;;23.11;64.70
54306;BME280;66145;45.188;5.712;2023-06-19T10:28:22;99030.78;;;23.14;64.45
54306;BME280;66145;45.188;5.712;2023-06-19T10:31:07;99009.31;;;23.07;64.12
54306;BME280;66145;45.188;5.712;2023-06-19T10:33:37;99014.69;;;23.16;64.27
54306;BME280;66145;45.188;5.712;2023-06-19T10:36:20;99025.53;;;23.21;63.73
54306;BME280;66145;45.188;5.712;2023-06-19T10:38:51;99019.06;;;23.17;63.83
54306;BME280;66145;45.188;5.712;2023-06-19T10:41:18;98985.56;;;23.03;63.94
54306;BME280;66145;45.188;5.712;2023-06-19T10:44:00;99013.06;;;23.28;63.74
54306;BME280;66145;45.188;5.712;2023-06-19T10:46:31;98983.91;;;23.14;63.83
54306;BME280;66145;45.188;5.712;2023-06-19T10:48:59;99009.53;;;23.27;63.84
54306;BME280;66145;45.188;5.712;2023-06-19T10:51:27;98985.59;;;23.19;63.73
54306;BME280;66145;45.188;5.712;2023-06-19T10:53:54;99005.94;;;23.27;63.76
54306;BME280;66145;45.188;5.712;2023-06-19T10:56:21;99009.28;;;23.32;63.78
54306;BME280;66145;45.188;5.712;2023-06-19T10:58:47;99005.78;;;23.35;63.86
54306;BME280;66145;45.188;5.712;2023-06-19T11:01:12;98997.53;;;23.35;63.34
54306;BME280;66145;45.188;5.712;2023-06-19T11:03:38;98993.28;;;23.38;63.73
54306;BME280;66145;45.188;5.712;2023-06-19T11:06:03;98986.59;;;23.39;63.41
54306;BME280;66145;45.188;5.712;2023-06-19T11:08:29;98990.59;;;23.42;63.53
54306;BME280;66145;45.188;5.712;2023-06-19T11:10:55;98985.00;;;23.38;63.52
54306;BME280;66145;45.188;5.712;2023-06-19T11:13:20;98969.22;;;23.38;63.28
54306;BME280;66145;45.188;5.712;2023-06-19T11:15:49;98978.50;;;23.46;63.43
54306;BME280;66145;45.188;5.712;2023-06-19T11:18:16;98963.38;;;23.40;63.53
54306;BME280;66145;45.188;5.712;2023-06-19T11:20:50;98966.66;;;23.46;63.38
54306;BME280;66145;45.188;5.712;2023-06-19T11:23:29;98969.34;;;23.42;63.31
54306;BME280;66145;45.188;5.712;2023-06-19T11:26:02;98974.19;;;23.33;63.63
54306;BME280;66145;45.188;5.712;2023-06-19T11:28:28;98947.50;;;23.08;64.34
54306;BME280;66145;45.188;5.712;2023-06-19T11:30:59;98945.41;;;23.18;64.14
54306;BME280;66145;45.188;5.712;2023-06-19T11:33:26;98928.53;;;23.07;63.99
54306;BME280;66145;45.188;5.712;2023-06-19T11:35:53;98922.13;;;23.03;64.11
54306;BME280;66145;45.188;5.712;2023-06-19T11:38:24;98922.56;;;23.05;64.08
54306;BME280;66145;45.188;5.712;2023-06-19T11:40:52;98937.81;;;23.15;64.07
54306;BME280;66145;45.188;5.712;2023-06-19T11:43:29;98923.47;;;23.09;64.33
54306;BME280;66145;45.188;5.712;2023-06-19T11:46:07;98916.69;;;23.06;64.20
54306;BME280;66145;45.188;5.712;2023-06-19T11:48:36;98923.13;;;23.11;64.02
54306;BME280;66145;45.188;5.712;2023-06-19T11:51:02;98906.13;;;23.08;64.27
54306;BME280;66145;45.188;5.712;2023-06-19T11:53:27;98907.25;;;23.07;64.34
54306;BME280;66145;45.188;5.712;2023-06-19T11:55:53;98902.91;;;23.06;64.35
54306;BME280;66145;45.188;5.712;2023-06-19T11:58:18;98879.13;;;23.02;64.25
54306;BME280;66145;45.188;5.712;2023-06-19T12:00:47;98896.22;;;23.07;64.40
54306;BME280;66145;45.188;5.712;2023-06-19T12:03:12;98896.22;;;23.07;64.27
54306;BME280;66145;45.188;5.712;2023-06-19T12:05:38;98878.22;;;22.98;64.16
54306;BME280;66145;45.188;5.712;2023-06-19T12:08:03;98868.16;;;22.89;64.53
54306;BME280;66145;45.188;5.712;2023-06-19T12:10:30;98891.78;;;23.03;64.49
54306;BME280;66145;45.188;5.712;2023-06-19T12:12:55;98883.28;;;22.96;64.45
54306;BME280;66145;45.188;5.712;2023-06-19T12:15:20;98876.53;;;22.93;65.05
54306;BME280;66145;45.188;5.712;2023-06-19T12:17:46;98879.28;;;22.93;65.22
54306;BME280;66145;45.188;5.712;2023-06-19T12:20:12;98849.25;;;22.75;65.08
54306;BME280;66145;45.188;5.712;2023-06-19T12:22:39;98838.69;;;22.77;65.06
54306;BME280;66145;45.188;5.712;2023-06-19T12:25:04;98848.66;;;22.82;65.39
54306;BME280;66145;45.188;5.712;2023-06-19T12:27:30;98865.06;;;22.91;65.55
54306;BME280;66145;45.188;5.712;2023-06-19T12:29:55;98806.47;;;22.66;65.52
54306;BME280;66145;45.188;5.712;2023-06-19T12:32:21;98825.34;;;22.79;65.49
54306;BME280;66145;45.188;5.712;2023-06-19T12:34:46;98830.50;;;22.81;65.50
54306;BME280;66145;45.188;5.712;2023-06-19T12:37:15;98846.13;;;22.89;65.39
54306;BME280;66145;45.188;5.712;2023-06-19T12:39:43;98811.72;;;22.71;65.59
54306;BME280;66145;45.188;5.712;2023-06-19T12:42:08;98830.25;;;22.86;65.64
54306;BME280;66145;45.188;5.712;2023-06-19T12:44:34;98819.03;;;22.79;65.35
54306;BME280;66145;45.188;5.712;2023-06-19T12:46:59;98837.03;;;22.89;65.49
54306;BME280;66145;45.188;5.712;2023-06-19T12:49:25;98836.22;;;22.88;65.08
54306;BME280;66145;45.188;5.712;2023-06-19T12:51:51;98825.19;;;22.88;65.39
54306;BME280;66145;45.188;5.712;2023-06-19T12:54:17;98816.47;;;22.86;65.55
54306;BME280;66145;45.188;5.712;2023-06-19T12:56:43;98822.78;;;22.87;65.36
54306;BME280;66145;45.188;5.712;2023-06-19T12:59:08;98823.50;;;22.84;65.47
54306;BME280;66145;45.188;5.712;2023-06-19T13:01:33;98815.25;;;22.84;65.53
54306;BME280;66145;45.188;5.712;2023-06-19T13:03:59;98816.84;;;22.85;65.22